• Join FlightAware (Why Join?)
  • Login
  • US Flag 
10:36PM EDT


 

Airport Tracker/Info


-or-


 

Live Flight TrackerFlight Track Log ✈ N589H ✈ 05-Apr-2014 ✈ KAPF - KBLM

Flight Track Log - Related Links

Times and Time Zones

All times are in EDT time to prevent confusion due to time zone crossing. See the N589H flight status page for this flight to view local times or setup timezone preferences in your user account.

Time Position Orientation Groundspeed Altitude Reporting Facility
EDT Latitude Longitude Course Direction KTS MPH feet Rate Location/Type
10:08AM 26.2525 -81.7719 North 170 196 3,700  Level Miami Center
10:09AM 26.3047 -81.7764 356° North 197 227 5,400 1,800 Climbing Miami Center
10:10AM 26.3650 -81.7836 354° North 212 244 7,400 1,800 Climbing Miami Center
10:11AM 26.4253 -81.7931 352° North 230 265 9,100 1,800 Climbing Miami Center
10:12AM 26.4978 -81.8031 353° North 235 270 11,100 1,860 Climbing Miami Center
10:13AM 26.7188 -81.8333 North  Level FlightAware Approximate
10:13AM 26.5686 -81.8128 353° North 240 276 12,900  Level Miami Center
10:14AM 26.8143 -81.8333 North  Level FlightAware Approximate
10:14AM 26.6372 -81.8206 354° North 240 276 14,700  Level Miami Center
10:15AM 26.7017 -81.8231 358° North 240 276 17,100 1,620 Climbing Miami Center
10:16AM 26.7603 -81.8233 360° North 235 270 18,000 420 Climbing Miami Center
10:17AM 26.8436 -81.8269 358° North 265 305 18,000 120 Level Miami Center
10:18AM 26.9411 -81.8425 352° North 304 350 18,300 900 Climbing Miami Center
10:19AM 27.0242 -81.8556 352° North 309 356 19,900 1,500 Climbing Miami Center
10:20AM 27.1031 -81.8706 350° North 299 344 21,400 1,380 Climbing Miami Center
10:21AM 27.1819 -81.8808 353° North 285 328 22,700 4,800 Climbing Miami Center
10:22AM 27.2547 -81.8936 351° North 267 307 31,000 1,140 Climbing Miami Center
10:23AM 27.3200 -81.8731 16° North 262 302 25,000 -2,580 Descending Miami Center
10:24AM 27.4047 -81.8344 22° Northeast 287 330 25,900 900 Climbing Miami Center
10:25AM 27.4853 -81.8006 20° North 297 342 26,900 960 Climbing Miami Center
10:26AM 27.5594 -81.7686 21° North 297 342 27,900 900 Climbing Miami Center
10:27AM 27.6272 -81.7389 21° North 292 336 28,800 840 Climbing Miami Center
10:28AM 27.7097 -81.7047 20° North 292 336 29,700 780 Climbing Miami Center
10:29AM 27.7839 -81.6706 22° Northeast 292 336 30,400 600 Climbing Miami Center
10:30AM 27.8581 -81.6383 21° North 292 336 31,000 240 Climbing Miami Center
10:31AM 27.9364 -81.6017 22° Northeast 292 336 31,000  Level Miami Center
10:32AM 28.0189 -81.5675 20° North 303 349 31,000  Level Miami Center
10:33AM 28.1036 -81.5311 21° North 309 356 31,000  Level Miami Center
10:34AM 28.1883 -81.4922 22° Northeast 314 361 31,000  Level Miami Center
10:35AM 28.2725 -81.4697 13° North 314 361 31,000  Level Miami Center
10:36AM 28.3600 -81.4756 357° North 301 346 31,000  Level Miami Center
10:37AM 28.4433 -81.4767 359° North 296 341 31,000  Level Miami Center
10:39AM 28.5469 -81.4794 359° North 300 345 31,000  Level Jacksonville Center
10:40AM 28.6325 -81.4828 358° North 305 351 31,000  Level Jacksonville Center
10:41AM 28.7181 -81.4839 359° North 310 357 31,000  Level Jacksonville Center
10:42AM 28.8039 -81.4853 359° North 310 357 31,000  Level Jacksonville Center
10:43AM 28.8889 -81.4508 20° North 315 362 31,000  Level Jacksonville Center
10:44AM 28.9761 -81.3972 28° Northeast 322 371 31,000  Level Jacksonville Center
10:45AM 29.0653 -81.3508 24° Northeast 334 384 31,000  Level Jacksonville Center
10:46AM 29.1544 -81.2994 27° Northeast 339 390 31,000  Level Jacksonville Center
10:47AM 29.2394 -81.2528 26° Northeast 339 390 31,000  Level Jacksonville Center
10:48AM 29.3264 -81.2039 26° Northeast 339 390 31,000  Level Jacksonville Center
10:49AM 29.4153 -81.1500 28° Northeast 339 390 31,000  Level Jacksonville Center
10:50AM 29.5067 -81.1028 24° Northeast 334 384 31,000  Level Jacksonville Center
10:51AM 29.5936 -81.0536 26° Northeast 334 384 31,000  Level Jacksonville Center
10:52AM 29.6764 -81.0042 27° Northeast 339 390 31,000  Level Jacksonville Center
10:53AM 29.7653 -80.9522 27° Northeast 339 390 31,000  Level Jacksonville Center
10:54AM 29.8503 -80.9075 25° Northeast 339 390 31,000  Level Jacksonville Center
10:55AM 29.9350 -80.8578 27° Northeast 339 390 31,000  Level Jacksonville Center
10:56AM 30.0197 -80.8081 27° Northeast 339 390 31,000  Level Jacksonville Center
10:57AM 30.1025 -80.7581 28° Northeast 339 390 31,000  Level Jacksonville Center
10:58AM 30.1914 -80.7106 25° Northeast 339 390 31,000  Level Jacksonville Center
10:59AM 30.2761 -80.6606 27° Northeast 339 390 31,000  Level Jacksonville Center
11:00AM 30.3631 -80.6103 27° Northeast 339 390 31,000  Level Jacksonville Center
11:01AM 30.4519 -80.5625 25° Northeast 339 390 31,000  Level Jacksonville Center
11:02AM 30.5344 -80.5097 29° Northeast 339 390 31,000  Level Jacksonville Center
11:03AM 30.6233 -80.4617 25° Northeast 339 390 31,000  Level Jacksonville Center
11:04AM 30.7058 -80.4089 29° Northeast 339 390 31,000  Level Jacksonville Center
11:05AM 30.7967 -80.3581 26° Northeast 344 396 31,000  Level Jacksonville Center
11:06AM 30.8811 -80.3050 28° Northeast 344 396 31,000  Level Jacksonville Center
11:07AM 30.9700 -80.2567 25° Northeast 344 396 31,000  Level Jacksonville Center
11:08AM 31.0650 -80.2103 23° Northeast 344 396 31,000  Level Jacksonville Center
11:09AM 31.1475 -80.1544 30° Northeast 337 388 31,000  Level Jacksonville Center
11:10AM 31.2361 -80.1058 25° Northeast 352 405 31,000  Level Jacksonville Center
11:11AM 31.3225 -80.0522 28° Northeast 347 399 31,000  Level Jacksonville Center
11:12AM 31.4008 -80.0036 28° Northeast 342 394 31,000  Level Jacksonville Center
11:13AM 31.4872 -79.9519 27° Northeast 342 394 31,000  Level Jacksonville Center
11:14AM 31.5758 -79.9006 26° Northeast 342 394 31,000  Level Jacksonville Center
11:15AM 31.6644 -79.8489 26° Northeast 342 394 31,000  Level Jacksonville Center
11:16AM 31.7528 -79.7922 29° Northeast 342 394 31,000  Level Jacksonville Center
11:17AM 31.8414 -79.7428 25° Northeast 342 394 31,000  Level Jacksonville Center
11:18AM 31.9317 -79.6858 28° Northeast 342 394 31,000  Level Jacksonville Center
11:19AM 32.0181 -79.6339 27° Northeast 342 394 31,000  Level Jacksonville Center
11:20AM 32.1067 -79.5817 27° Northeast 342 394 31,000 120 Level Jacksonville Center
11:21AM 32.1950 -79.5319 25° Northeast 342 394 31,300 360 Climbing Jacksonville Center
11:22AM 32.2792 -79.4772 29° Northeast 342 394 31,800 540 Climbing Jacksonville Center
11:23AM 32.3614 -79.4272 27° Northeast 337 388 32,400 540 Climbing Jacksonville Center
11:24AM 32.4414 -79.3825 25° Northeast 332 382 32,900 300 Climbing Jacksonville Center
11:25AM 32.5256 -79.3300 28° Northeast 327 376 33,000  Climbing Jacksonville Center
11:26AM 32.6078 -79.2797 27° Northeast 327 376 33,000  Level Jacksonville Center
11:27AM 32.6917 -79.2269 28° Northeast 322 371 33,000  Level Jacksonville Center
11:28AM 32.7778 -79.1767 26° Northeast 327 376 33,000  Level Jacksonville Center
11:29AM 32.8639 -79.1211 28° Northeast 339 390 33,000  Level Jacksonville Center
11:30AM 32.9644 -79.0600 27° Northeast 347 399 33,000  Level Jacksonville Center
11:31AM 33.0503 -79.0069 27° Northeast 347 399 33,000  Level Jacksonville Center
11:32AM 33.1383 -78.9508 28° Northeast 352 405 33,000  Level Jacksonville Center
11:33AM 33.2286 -78.8972 26° Northeast 352 405 33,000  Level Jacksonville Center
11:34AM 33.3186 -78.8411 28° Northeast 352 405 33,000  Level Jacksonville Center
11:35AM 33.4044 -78.7850 29° Northeast 357 411 33,000  Level Jacksonville Center
11:36AM 33.4964 -78.7308 26° Northeast 362 417 33,000  Level Jacksonville Center
11:37AM 33.5864 -78.6742 28° Northeast 362 417 33,000  Level Jacksonville Center
11:38AM 33.7192 -78.5900 28° Northeast 358 412 33,000  Level Washington Center
11:39AM 33.8122 -78.5361 26° Northeast 358 412 33,000 540 Level Washington Center
11:40AM 33.9014 -78.4792 28° Northeast 358 412 34,100 780 Climbing Washington Center
11:41AM 33.9858 -78.4269 27° Northeast 358 412 34,600 420 Climbing Washington Center
11:42AM 34.0706 -78.3747 27° Northeast 353 406 35,000 180 Climbing Washington Center
11:43AM 34.1594 -78.3200 27° Northeast 353 406 35,000  Level Washington Center
11:44AM 34.2442 -78.2650 28° Northeast 353 406 35,000  Level Washington Center
11:45AM 34.3331 -78.2075 28° Northeast 353 406 35,000  Level Washington Center
11:46AM 34.4200 -78.1500 29° Northeast 353 406 35,000  Level Washington Center
11:47AM 34.5086 -78.0947 27° Northeast 353 406 35,000  Level Washington Center
11:48AM 34.5997 -78.0344 29° Northeast 353 406 35,000  Level Washington Center
11:49AM 34.6906 -77.9764 28° Northeast 358 412 35,000  Level Washington Center
11:50AM 34.7794 -77.9183 28° Northeast 358 412 35,000 -300 Level Washington Center
11:51AM 34.8703 -77.8553 30° Northeast 358 412 34,500 -540 Descending Washington Center
11:52AM 34.9675 -77.7944 27° Northeast 368 423 34,000 -540 Descending Washington Center
11:53AM 35.0667 -77.7314 27° Northeast 381 438 33,500 -540 Descending Washington Center
11:54AM 35.1636 -77.6653 29° Northeast 392 451 33,000 -300 Descending Washington Center
11:55AM 35.2650 -77.6017 27° Northeast 397 457 33,000  Level Washington Center
11:56AM 35.3619 -77.5378 28° Northeast 397 457 33,000  Level Washington Center
11:57AM 35.4611 -77.4739 28° Northeast 397 457 33,000  Level Washington Center
11:58AM 35.5581 -77.4100 28° Northeast 397 457 33,000  Level Washington Center
11:59AM 35.6550 -77.3456 28° Northeast 397 457 33,000  Level Washington Center
12:00PM 35.7539 -77.2786 29° Northeast 397 457 33,000  Level Washington Center
12:02PM 35.9478 -77.1494 29° Northeast 397 457 33,000  Level Washington Center
12:03PM 36.0444 -77.0872 27° Northeast 397 457 33,000  Level Washington Center
12:04PM 36.1433 -77.0219 28° Northeast 397 457 33,000  Level Washington Center
12:05PM 36.2400 -76.9569 28° Northeast 397 457 33,000 -180 Level Washington Center
12:07PM 36.4378 -76.8233 29° Northeast 397 457 32,500 -360 Descending Washington Center
12:08PM 36.5386 -76.7553 28° Northeast 397 457 32,100 -480 Descending Washington Center
12:09PM 36.6392 -76.6842 30° Northeast 397 457 31,600 -480 Descending Washington Center
12:10PM 36.7422 -76.6131 29° Northeast 402 463 31,200 -480 Descending Washington Center
12:11PM 36.8428 -76.5444 29° Northeast 407 468 30,700 -480 Descending Washington Center
12:12PM 36.9456 -76.4703 30° Northeast 412 474 30,300 -480 Descending Washington Center
12:13PM 37.0506 -76.3986 29° Northeast 417 480 29,800 -480 Descending Washington Center
12:14PM 37.1531 -76.3294 28° Northeast 417 480 29,400 -420 Descending Washington Center
12:15PM 37.2683 -76.2494 29° Northeast 417 480 29,000 -240 Descending Washington Center
12:16PM 37.3731 -76.1772 29° Northeast 417 480 29,000  Level Washington Center
12:17PM 37.4797 -76.1047 28° Northeast 417 480 29,000  Level Washington Center
12:18PM 37.5822 -76.0347 28° Northeast 417 480 29,000  Level Washington Center
12:19PM 37.6867 -75.9619 29° Northeast 417 480 29,000  Level Washington Center
12:20PM 37.7850 -75.8861 31° Northeast 417 480 29,000 -120 Level Washington Center
12:21PM 37.8956 -75.8156 27° Northeast 417 480 28,800 -540 Descending Washington Center
12:22PM 38.0000 -75.7367 31° Northeast 427 491 28,000 -840 Descending Washington Center
12:23PM 38.1022 -75.6603 30° Northeast 427 491 27,200 -540 Descending Washington Center
12:24PM 38.2003 -75.5733 35° Northeast 427 491 27,000 -120 Descending Washington Center
12:25PM 38.2961 -75.4781 38° Northeast 427 491 27,000  Level Washington Center
12:26PM 38.3772 -75.3931 39° Northeast 433 498 27,000 -300 Level Washington Center
12:27PM 38.4731 -75.2947 39° Northeast 428 493 26,500 -900 Descending Washington Center
12:28PM 38.5769 -75.2306 26° Northeast 423 487 25,300 -1,260 Descending Washington Center
12:29PM 38.6831 -75.1583 28° Northeast 418 481 24,000 -1,320 Descending Washington Center
12:30PM 38.7831 -75.0936 27° Northeast 413 475 22,700 -1,380 Descending Washington Center
12:31PM 38.8828 -75.0264 28° Northeast 402 463 21,400 -1,440 Descending Washington Center
12:32PM 38.9783 -74.9614 28° Northeast 396 456 19,900 -1,500 Descending Washington Center
12:33PM 39.0739 -74.8964 28° Northeast 390 449 18,400 -1,620 Descending Washington Center
12:34PM 39.1672 -74.8472 22° Northeast 380 437 16,700 -1,800 Descending Washington Center
12:35PM 39.2608 -74.8117 16° North 369 425 14,900 -1,680 Descending Washington Center
12:38PM 39.4744 -74.6786 26° Northeast 338 389 10,900 -1,500 Descending New York Center
12:39PM 39.5511 -74.6192 31° Northeast 327 376 9,600 -1,320 Descending New York Center
12:40PM 39.6278 -74.5606 30° Northeast 324 373 8,300 -1,380 Descending New York Center
12:41PM 39.7178 -74.4892 31° Northeast 321 369 6,800 -1,380 Descending New York Center
12:42PM 39.7925 -74.4328 30° Northeast 304 350 5,500 -1,260 Descending New York Center
12:43PM 39.8625 -74.3781 31° Northeast 283 326 4,200 -1,080 Descending New York Center
12:44PM 39.9286 -74.3286 30° Northeast 262 302 3,300 -1,020 Descending New York Center
12:45PM 39.9919 -74.2792 31° Northeast 258 297 2,200 -660 Descending New York Center
12:46PM 40.0514 -74.2331 31° Northeast 239 275 2,000 -180 Descending New York Center
12:47PM 40.1069 -74.1861 33° Northeast 231 266 1,900 -240 Descending New York Center
12:48PM 40.1436 -74.1322 48° Northeast 209 241 1,600 -720 Descending New York Center
12:49PM 40.1728 -74.1050 35° Northeast 131 151 500 -600 Descending New York Center
12:50PM 40.1925 -74.1342 312° West 125 144 400 -120 Descending New York Center